Thunder radar more information blitzortung!


avis per Pluja more information rain snow radar


Visita la nostra xarxa de llocs de meteo:

Template documentation
and downloads

And another site



Rain From: 18-10-2018 10:00 Until: 16:59 warning for: Rain Level: Yellow info button

Pagina Historial Weather Underground text

Diari Resum Abril 1, 2016 Unitats:  Mètric    Imperial   Tant
« Previous Dia
SegĂźent Dia »
Diari Setmana Mensual Anual Personalitzada
  Maxima: Minima: Media:
Temperatura: -17.8 °C -14 °C -12.1 °C
Punt de rosada: -17.8 °C -18.3 °C -14.6 °C
Humitat: Humidity % 43 % 74 %
Wind Speed: 0 km/h 0 km/h 6.1 km/h
RĂ fegues de vent: 0 km/h - -
Vent:- - South
Pression baro: 0 hPa 34256.2 hPa -
Precipitacions: 431.8 mm    
Historical Graphs
 
 
Dades de taula per Abril 1, 2016
Temps Temperatura Punt de rosada Pression baro Vent Wind Speed RĂ fegues de vent Humitat Rainfall Rate (Hourly)
-17.8 °C -17.8 °C 0 hPa Calm     Humidity % 0 mm
00:00 -12.7 °C -18 °C 34293.4 hPa NNE 5.1 km/h 7.7 km/h 51 % 0 mm
00:02 -11.6 °C -18.3 °C 34256.2 hPa WNW 6.8 km/h 6.8 km/h 43 % 0 mm
00:07 -11.6 °C -18.3 °C 34256.2 hPa West 9.3 km/h 9.3 km/h 43 % 0 mm
00:10 -12.8 °C -18 °C 34327.3 hPa NNE 2.6 km/h 7.7 km/h 52 % 0 mm
00:20 -13.2 °C -17.8 °C 34327.3 hPa East 5.1 km/h 18.2 km/h 56 % 0 mm
00:30 -13.5 °C -17.7 °C 34361.1 hPa NNE 7.7 km/h 12.9 km/h 59 % 0 mm
00:50 -13.7 °C -17.6 °C 34327.3 hPa North 5.1 km/h 12.9 km/h 61 % 0 mm
01:00 -13.8 °C -17.4 °C 34327.3 hPa WNW 5.1 km/h 10.3 km/h 63 % 0 mm
01:10 -13.8 °C -17.1 °C 34327.3 hPa Calm   5.1 km/h 66 % 0 mm
01:20 -13.8 °C -17 °C 34327.3 hPa Calm   7.7 km/h 67 % 0 mm
01:30 -13.9 °C -16.8 °C 34327.3 hPa Calm   2.6 km/h 69 % 0 mm
01:40 -13.8 °C -16.9 °C 34327.3 hPa WSW 2.6 km/h 5.1 km/h 68 % 0 mm
01:50 -13.9 °C -16.8 °C 34327.3 hPa Calm   5.1 km/h 69 % 0 mm
02:00 -13.9 °C -16.8 °C 34327.3 hPa West 2.6 km/h 5.1 km/h 69 % 0 mm
02:10 -13.9 °C -16.7 °C 34327.3 hPa West 2.6 km/h 10.3 km/h 70 % 0 mm
02:20 -13.9 °C -16.4 °C 34327.3 hPa WSW 2.6 km/h 5.1 km/h 73 % 0 mm
02:30 -13.9 °C -16.3 °C 34327.3 hPa WSW 2.6 km/h 2.6 km/h 74 % 0 mm
02:40 -13.9 °C -16.4 °C 34327.3 hPa West 2.6 km/h 7.7 km/h 73 % 0 mm
02:50 -13.8 °C -16.2 °C 34327.3 hPa Calm   10.3 km/h 74 % 0 mm
03:00 -13.9 °C -16.2 °C 34327.3 hPa SW 5.1 km/h 7.7 km/h 75 % 0 mm
03:10 -14 °C -16.1 °C 34327.3 hPa SSW 2.6 km/h 10.3 km/h 77 % 0 mm
03:40 -14 °C -16.2 °C 34361.1 hPa WSW 2.6 km/h 5.1 km/h 76 % 0 mm
03:50 -13.9 °C -16 °C 34361.1 hPa Calm   5.1 km/h 77 % 0 mm
04:00 -13.8 °C -15.7 °C 34327.3 hPa North 5.1 km/h 7.7 km/h 79 % 0 mm
04:10 -13.8 °C -15.9 °C 34361.1 hPa Calm   5.1 km/h 77 % 0 mm
04:20 -13.9 °C -15.9 °C 34361.1 hPa WSW 2.6 km/h 10.3 km/h 78 % 0 mm
04:30 -13.8 °C -15.6 °C 34361.1 hPa WNW 5.1 km/h 7.7 km/h 80 % 0 mm
04:40 -13.6 °C -15.4 °C 34327.3 hPa NNE 5.1 km/h 7.7 km/h 80 % 0 mm
09:43 -13.6 °C -15.4 °C 34327.3 hPa NNE 9 km/h 9 km/h 79 % 0 mm
09:48 -13.6 °C -15.4 °C 34327.3 hPa NE 11.9 km/h 11.9 km/h 79 % 0 mm
09:53 -13.4 °C -15.3 °C 34361.1 hPa North 15 km/h 15 km/h 79 % 0 mm
09:58 -13.4 °C -15.3 °C 34361.1 hPa NNE 9 km/h 9 km/h 79 % 0 mm
10:03 -13.4 °C -15.3 °C 34361.1 hPa NE 7.6 km/h 7.6 km/h 79 % 0 mm
10:08 -13.3 °C -15.3 °C 34361.1 hPa West 6 km/h 6 km/h 78 % 0 mm
10:13 -13.3 °C -15.4 °C 34361.1 hPa WSW 9 km/h 9 km/h 77 % 0 mm
10:18 -13.3 °C -15.3 °C 34361.1 hPa Calm     78 % 0 mm
10:23 -13.3 °C -15.3 °C 34361.1 hPa SW 6.3 km/h 6.3 km/h 78 % 0 mm
10:28 -13.3 °C -15.2 °C 34361.1 hPa SW 3.7 km/h 5.1 km/h 79 % 0 mm
10:33 -13.3 °C -15.2 °C 34361.1 hPa SW 6 km/h 6.3 km/h 79 % 0 mm
10:38 -13.3 °C -15.2 °C 34395 hPa WSW 8 km/h 8 km/h 79 % 0 mm
10:43 -13.3 °C -15.1 °C 34395 hPa West 6 km/h 6 km/h 80 % 0 mm
10:48 -13.4 °C -15.3 °C 34395 hPa West 6 km/h 6 km/h 79 % 0 mm
10:53 -13.3 °C -15.1 °C 34395 hPa West 6 km/h 6 km/h 80 % 0 mm
10:58 -13.3 °C -15.1 °C 34395 hPa West 6 km/h 6 km/h 80 % 0 mm
11:03 -13.2 °C -14.9 °C 34395 hPa West 6 km/h 6 km/h 81 % 0 mm
11:08 -13.2 °C -14.8 °C 34395 hPa Calm     82 % 0 mm
11:13 -13.1 °C -14.7 °C 34395 hPa ENE 3.7 km/h 3.7 km/h 82 % 0 mm
11:18 -13.1 °C -14.7 °C 34395 hPa NE 6 km/h 6 km/h 82 % 0 mm
11:23 -13.1 °C -14.7 °C 34395 hPa NE 6 km/h 6 km/h 82 % 0 mm
11:28 -13.1 °C -14.8 °C 34395 hPa NNE 6 km/h 6 km/h 81 % 0 mm
11:33 -13.1 °C -14.8 °C 34395 hPa NNE 6 km/h 6 km/h 81 % 0 mm
11:38 -13 °C -14.7 °C 34395 hPa ENE 6 km/h 6 km/h 81 % 0 mm
11:43 -12.9 °C -14.8 °C 34395 hPa WNW 9 km/h 9 km/h 80 % 0 mm
11:48 -12.9 °C -14.8 °C 34395 hPa ENE 6 km/h 6 km/h 80 % 0 mm
11:53 -12.9 °C -14.8 °C 34428.8 hPa WNW 8 km/h 8 km/h 79 % 0 mm
11:58 -12.8 °C -14.8 °C 34428.8 hPa SW 6 km/h 6 km/h 79 % 0 mm
12:03 -12.8 °C -14.6 °C 34428.8 hPa West 6.3 km/h 6.3 km/h 80 % 0 mm
12:08 -12.7 °C -14.6 °C 34395 hPa SW 3.1 km/h   80 % 0 mm
12:13 -12.7 °C -14.6 °C 34395 hPa WSW 9 km/h 9 km/h 79 % 0 mm
12:18 -12.7 °C -14.5 °C 34395 hPa SW 8 km/h 8 km/h 80 % 0 mm
12:23 -12.7 °C -14.4 °C 34395 hPa SW 6 km/h   81 % 0 mm
12:28 -12.6 °C -14.3 °C 34395 hPa SW 6 km/h   81 % 0 mm
12:33 -12.7 °C -14.4 °C 34395 hPa SSW 3.1 km/h 3.1 km/h 81 % 0 mm
12:38 -12.6 °C -14.2 °C 34395 hPa SSW 3.1 km/h   82 % 0 mm
12:43 -12.4 °C -14.2 °C 34395 hPa WSW 6 km/h 6 km/h 81 % 0 mm
12:48 -12.4 °C -14 °C 34395 hPa SW 3.1 km/h   82 % 0 mm
12:53 -12.3 °C -13.9 °C 34395 hPa SW 4.2 km/h   82 % 0 mm
12:58 -12.2 °C -13.8 °C 34395 hPa WSW 6 km/h 6 km/h 82 % 0 mm
13:03 -12.2 °C -13.9 °C 34395 hPa South 6 km/h 6 km/h 81 % 0 mm
13:08 -12.1 °C -13.7 °C 34361.1 hPa SW 3.1 km/h   82 % 0 mm
13:13 -12.1 °C -13.8 °C 34361.1 hPa SW 9 km/h 9 km/h 81 % 0 mm
13:18 -12 °C -13.7 °C 34361.1 hPa WSW 3.7 km/h   82 % 0 mm
13:23 -12.1 °C -13.8 °C 34361.1 hPa SSE 5.6 km/h   81 % 0 mm
13:28 -11.9 °C -13.7 °C 34361.1 hPa Calm     81 % 0 mm
13:33 -11.8 °C -13.6 °C 34361.1 hPa ESE 5.1 km/h 5.1 km/h 81 % 0 mm
13:38 -11.8 °C -13.7 °C 34395 hPa ESE 3.1 km/h   80 % 0 mm
13:43 -11.8 °C -13.8 °C 34395 hPa West 6 km/h 6 km/h 79 % 0 mm
13:48 -11.9 °C -13.8 °C 34395 hPa WSW 6.3 km/h 6.3 km/h 79 % 0 mm
13:53 -11.8 °C -13.8 °C 34361.1 hPa SW 6 km/h   79 % 0 mm
13:58 -11.7 °C -13.6 °C 34361.1 hPa SE 2.3 km/h   79 % 0 mm
14:03 -11.7 °C -13.6 °C 34361.1 hPa ESE 9 km/h 9 km/h 79 % 0 mm
14:08 -11.6 °C -13.6 °C 34361.1 hPa NE 7.6 km/h 7.6 km/h 78 % 0 mm
14:13 -11.6 °C -13.7 °C 34361.1 hPa ENE 3.1 km/h 3.1 km/h 77 % 0 mm
14:18 -11.4 °C -13.7 °C 34361.1 hPa ENE 3.7 km/h   76 % 0 mm
14:23 -11.2 °C -13.5 °C 34361.1 hPa ESE 11.9 km/h 11.9 km/h 76 % 0 mm
14:28 -11.3 °C -13.7 °C 34361.1 hPa ESE 11.9 km/h 11.9 km/h 75 % 0 mm
14:33 -11.3 °C -13.8 °C 34361.1 hPa NE 6 km/h 6 km/h 74 % 0 mm
14:38 -11.2 °C -13.7 °C 34361.1 hPa South 9 km/h 9 km/h 74 % 0 mm
14:43 -10.9 °C -13.4 °C 34361.1 hPa SSE 7.6 km/h 7.6 km/h 74 % 0 mm
14:48 -10.8 °C -13.4 °C 34361.1 hPa SSW 9 km/h 9 km/h 73 % 0 mm
14:53 -10.7 °C -13.2 °C 34361.1 hPa SW 15 km/h 15 km/h 74 % 0 mm
14:58 -10.8 °C -13.2 °C 34361.1 hPa SW 9 km/h 9 km/h 75 % 0 mm
15:03 -11.1 °C -13.4 °C 34361.1 hPa WSW 32.3 km/h 32.3 km/h 75 % 0 mm
15:08 -11.2 °C -13.5 °C 34327.3 hPa SW 15 km/h 15 km/h 76 % 0 mm
15:13 -11.3 °C -13.8 °C 34327.3 hPa WSW 11.9 km/h 11.9 km/h 74 % 0 mm
15:18 -11.1 °C -13.7 °C 34327.3 hPa NE 9 km/h 9 km/h 73 % 0 mm
15:23 -10.9 °C -13.7 °C 34327.3 hPa SW 9 km/h 9 km/h 72 % 0 mm
15:28 -10.7 °C -13.5 °C 34327.3 hPa NNW 6 km/h 6 km/h 71 % 0 mm
15:38 -10.6 °C -13.9 °C 34327.3 hPa WSW 11.9 km/h 11.9 km/h 67 % 0 mm
15:43 -10.4 °C -13.9 °C 34327.3 hPa West 6 km/h 6 km/h 66 % 0 mm
15:48 -10.3 °C -13.8 °C 34327.3 hPa WSW 9 km/h 9 km/h 66 % 0 mm
15:53 -10.3 °C -14 °C 34327.3 hPa SW 17.9 km/h 17.9 km/h 64 % 0 mm
16:03 -9.7 °C -13.4 °C 34327.3 hPa North 9 km/h 9 km/h 64 % 0 mm
16:08 -9.6 °C -13.3 °C 34327.3 hPa WSW 16.6 km/h 16.6 km/h 64 % 0 mm
16:13 -9.3 °C -13.2 °C 34327.3 hPa SW 9 km/h 9 km/h 63 % 0 mm
16:18 -9.2 °C -13.1 °C 34327.3 hPa SW 6.8 km/h 6.8 km/h 63 % 0 mm
16:23 -9.2 °C -13.2 °C 34293.4 hPa SW 11.9 km/h 11.9 km/h 62 % 0 mm
16:28 -9.4 °C -13.4 °C 34293.4 hPa ESE 15 km/h 15 km/h 62 % 0 mm
16:33 -9.7 °C -13.7 °C 34293.4 hPa ESE 15 km/h 15 km/h 62 % 0 mm
16:43 -10 °C -13.8 °C 34327.3 hPa ENE 17.9 km/h 17.9 km/h 63 % 0 mm
16:48 -10.1 °C -13.9 °C 34327.3 hPa ESE 17.9 km/h 17.9 km/h 63 % 0 mm
16:53 -10.4 °C -14 °C 34327.3 hPa ESE 15 km/h 15 km/h 65 % 0 mm
16:58 -10.5 °C -13.9 °C 34327.3 hPa ESE 15 km/h 15 km/h 66 % 0 mm
17:03 -10.6 °C -13.9 °C 34327.3 hPa East 23.8 km/h 23.8 km/h 67 % 0 mm
17:08 -10.7 °C -14 °C 34327.3 hPa ESE 17.9 km/h 17.9 km/h 67 % 0 mm
17:13 -10.7 °C -14 °C 34327.3 hPa ESE 15 km/h 15 km/h 67 % 0 mm
17:18 -10.7 °C -14 °C 34327.3 hPa ENE 9 km/h 9 km/h 67 % 0 mm
17:23 -10.7 °C -14 °C 34327.3 hPa ENE 11.9 km/h 11.9 km/h 67 % 0 mm
17:33 -10.7 °C -14.1 °C 34327.3 hPa ESE 15 km/h 15 km/h 67 % 0 mm
17:38 -10.7 °C -14.1 °C 34327.3 hPa ESE 20.9 km/h 20.9 km/h 67 % 0 mm
17:43 -10.7 °C -14.1 °C 34327.3 hPa East 15.6 km/h 15.6 km/h 67 % 0 mm
17:48 -10.8 °C -14 °C 34327.3 hPa East 15 km/h 15 km/h 68 % 0 mm
17:53 -10.9 °C -13.9 °C 34327.3 hPa NNE 17.9 km/h 17.9 km/h 69 % 0 mm
17:58 -10.9 °C -14 °C 34327.3 hPa ESE 20.3 km/h 20.3 km/h 69 % 431.8 mm
18:03 -11 °C -14.1 °C 34327.3 hPa East 15 km/h 15 km/h 69 % 431.8 mm
18:08 -11 °C -14.1 °C 34327.3 hPa East 15 km/h 15 km/h 69 % 431.8 mm
18:13 -11.1 °C -14.1 °C 34327.3 hPa ESE 11.9 km/h 11.9 km/h 69 % 431.8 mm
18:18 -11.1 °C -14.1 °C 34327.3 hPa ENE 6 km/h   69 % 431.8 mm
18:23 -11 °C -13.9 °C 34327.3 hPa South 6 km/h 6 km/h 70 % 431.8 mm
18:33 -11 °C -14.1 °C 34327.3 hPa WSW 6 km/h 6 km/h 69 % 431.8 mm
18:38 -11.1 °C -14.1 °C 34327.3 hPa SW 15 km/h 15 km/h 69 % 431.8 mm
18:43 -11.1 °C -14.1 °C 34327.3 hPa WSW 9.8 km/h 9.8 km/h 69 % 431.8 mm
18:53 -11.1 °C -14.1 °C 34327.3 hPa West 9 km/h 9 km/h 69 % 431.8 mm
18:58 -11.1 °C -14.1 °C 34327.3 hPa WSW 9.3 km/h 9.3 km/h 69 % 0 mm
19:03 -11.1 °C -14.2 °C 34327.3 hPa WSW 6 km/h 6 km/h 69 % 0 mm
19:08 -11.1 °C -14.2 °C 34327.3 hPa SW 9 km/h 9 km/h 69 % 0 mm
19:10 -12.1 °C -14.1 °C 34327.3 hPa Calm     78 % 0 mm
19:13 -11.2 °C -14.2 °C 34327.3 hPa WSW 6 km/h 6 km/h 69 % 0 mm
19:18 -11.1 °C -14.2 °C 34327.3 hPa SSW 8 km/h 8 km/h 69 % 0 mm
19:20 -12.2 °C -14.2 °C 34327.3 hPa Calm     78 % 0 mm
19:23 -11.2 °C -14.2 °C 34327.3 hPa West 9 km/h 9 km/h 70 % 0 mm
19:28 -11.2 °C -14.2 °C 34327.3 hPa SW 10.3 km/h 10.3 km/h 70 % 0 mm
19:33 -11.3 °C -14 °C 34327.3 hPa West 9 km/h 9 km/h 72 % 0 mm
19:38 -11.3 °C -14 °C 34293.4 hPa WSW 9.3 km/h 9.3 km/h 72 % 0 mm
19:40 -12.2 °C -14.2 °C 34327.3 hPa Calm   2.6 km/h 78 % 0 mm
19:43 -11.3 °C -13.9 °C 34293.4 hPa SW 9 km/h 9 km/h 73 % 0 mm
19:48 -11.4 °C -14 °C 34293.4 hPa WSW 11.1 km/h 11.1 km/h 73 % 0 mm
19:50 -12.2 °C -14.2 °C 34327.3 hPa Calm   5.1 km/h 78 % 0 mm
19:53 -11.4 °C -14 °C 34327.3 hPa West 6 km/h 6 km/h 73 % 0 mm
19:58 -11.4 °C -14.1 °C 34327.3 hPa WSW 6.8 km/h 6.8 km/h 73 % 0 mm
20:00 -12.2 °C -14.2 °C 34327.3 hPa NNE 2.6 km/h 5.1 km/h 78 % 0 mm
20:03 -11.5 °C -14.1 °C 34327.3 hPa SW 6.3 km/h 6.3 km/h 73 % 0 mm
20:08 -11.6 °C -14.1 °C 34327.3 hPa SW 5.1 km/h 5.1 km/h 73 % 0 mm
20:10 -12.3 °C -14.3 °C 34327.3 hPa WSW 2.6 km/h 5.1 km/h 78 % 0 mm
20:13 -11.6 °C -14.2 °C 34327.3 hPa WSW 5.1 km/h 5.1 km/h 73 % 0 mm
20:18 -11.7 °C -14.3 °C 34327.3 hPa SW 6 km/h 6 km/h 73 % 0 mm
20:20 -12.3 °C -14.3 °C 34327.3 hPa Calm   2.6 km/h 79 % 0 mm
20:23 -11.7 °C -14.2 °C 34327.3 hPa SW 3.7 km/h 3.7 km/h 74 % 0 mm
20:28 -11.8 °C -14.3 °C 34327.3 hPa SW 6 km/h 6 km/h 74 % 0 mm
20:30 -12.4 °C -14.3 °C 34327.3 hPa Calm   2.6 km/h 79 % 0 mm
20:33 -11.8 °C -14.3 °C 34327.3 hPa WSW 6 km/h 6 km/h 74 % 0 mm
20:38 -11.8 °C -14.3 °C 34327.3 hPa WSW 6 km/h 6 km/h 74 % 0 mm
20:43 -11.8 °C -14.2 °C 34327.3 hPa Calm     75 % 0 mm
20:48 -11.9 °C -14.3 °C 34327.3 hPa Calm     75 % 0 mm
20:50 -12.4 °C -14.4 °C 34327.3 hPa SW 2.6 km/h 5.1 km/h 79 % 0 mm
20:53 -11.9 °C -14.3 °C 34327.3 hPa Calm     75 % 0 mm
21:00 -12.6 °C -14.5 °C 34293.4 hPa SW 5.1 km/h 5.1 km/h 79 % 0 mm
21:03 -11.9 °C -14.3 °C 34327.3 hPa WSW 6 km/h 6 km/h 74 % 0 mm
21:08 -11.9 °C -14.3 °C 34327.3 hPa WSW 6 km/h 6 km/h 74 % 0 mm
21:10 -12.6 °C -14.5 °C 34327.3 hPa SW 5.1 km/h 5.1 km/h 79 % 0 mm
21:13 -11.9 °C -14.3 °C 34327.3 hPa SW 6 km/h 6 km/h 75 % 0 mm
21:18 -11.9 °C -14.3 °C 34327.3 hPa Calm     75 % 0 mm
21:20 -12.6 °C -14.4 °C 34327.3 hPa Calm   5.1 km/h 80 % 0 mm
21:23 -12 °C -14.3 °C 34327.3 hPa Calm     76 % 0 mm
21:28 -12 °C -14.3 °C 34327.3 hPa Calm     76 % 0 mm
21:30 -12.6 °C -14.3 °C 34327.3 hPa Calm     81 % 0 mm
21:33 -12 °C -14.3 °C 34327.3 hPa SW 3.1 km/h   76 % 0 mm
21:38 -12 °C -14.3 °C 34327.3 hPa WSW 6 km/h 6 km/h 75 % 0 mm
21:40 -12.6 °C -14.3 °C 34327.3 hPa Calm     81 % 0 mm
21:43 -12 °C -14.3 °C 34327.3 hPa SW 6.3 km/h 6.3 km/h 75 % 0 mm
21:48 -12.1 °C -14.3 °C 34327.3 hPa SW 6.3 km/h 6.3 km/h 76 % 0 mm
21:50 -12.7 °C -14.6 °C 34327.3 hPa WSW 2.6 km/h 5.1 km/h 80 % 0 mm
21:53 -12.1 °C -14.3 °C 34361.1 hPa WSW 9 km/h 9 km/h 76 % 0 mm
21:58 -12.2 °C -14.3 °C 34361.1 hPa Calm   2.3 km/h 77 % 0 mm
22:03 -12.2 °C -14.3 °C 34361.1 hPa Calm     77 % 0 mm
22:10 -12.7 °C -14.3 °C 34327.3 hPa Calm     82 % 0 mm
22:19 -12.2 °C -14.4 °C 34361.1 hPa WSW 6 km/h 6 km/h 76 % 0 mm
22:20 -12.7 °C -14.3 °C 34327.3 hPa Calm     82 % 0 mm
22:24 -12.2 °C -14.3 °C 34361.1 hPa Calm     77 % 0 mm
22:29 -12.1 °C -14.3 °C 34361.1 hPa Calm     77 % 0 mm
22:30 -12.7 °C -14.3 °C 34327.3 hPa Calm     82 % 0 mm
22:34 -12.1 °C -14.3 °C 34361.1 hPa Calm     77 % 0 mm
22:39 -12.1 °C -14.1 °C 34361.1 hPa Calm     78 % 0 mm
22:40 -12.7 °C -14.3 °C 34293.4 hPa Calm     82 % 0 mm
22:44 -12.1 °C -14.1 °C 34361.1 hPa Calm     78 % 0 mm
22:49 -12.1 °C -14.3 °C 34361.1 hPa NW 3.1 km/h   77 % 0 mm
22:50 -12.7 °C -14.4 °C 34293.4 hPa NNW 2.6 km/h 2.6 km/h 81 % 0 mm
22:54 -12.1 °C -14.1 °C 34361.1 hPa Calm     78 % 0 mm
22:59 -12.1 °C -14.1 °C 34361.1 hPa Calm     78 % 0 mm
23:00 -12.8 °C -14.5 °C 34293.4 hPa Calm   2.6 km/h 81 % 0 mm
23:04 -12.1 °C -14.1 °C 34361.1 hPa ENE 6.8 km/h 6.8 km/h 78 % 0 mm
23:09 -12.1 °C -14.1 °C 34361.1 hPa NE 6 km/h 6 km/h 78 % 0 mm
23:10 -12.8 °C -14.7 °C 34293.4 hPa NE 2.6 km/h 2.6 km/h 80 % 0 mm
23:14 -12.1 °C -14.1 °C 34361.1 hPa East 3.7 km/h 3.7 km/h 78 % 0 mm
23:19 -12.1 °C -14.1 °C 34361.1 hPa NE 3.1 km/h   78 % 0 mm
23:20 -12.9 °C -14.6 °C 34293.4 hPa Calm     81 % 0 mm
23:24 -12.1 °C -14.1 °C 34361.1 hPa NE 3.1 km/h   78 % 0 mm
23:29 -12.1 °C -14.1 °C 34361.1 hPa NE 6 km/h 6 km/h 78 % 0 mm
23:30 -12.9 °C -14.5 °C 34293.4 hPa Calm     82 % 0 mm
23:34 -12.1 °C -14.3 °C 34361.1 hPa ENE 3.7 km/h   77 % 0 mm
23:39 -12.1 °C -14.3 °C 34327.3 hPa ENE 3.1 km/h   77 % 0 mm
23:40 -13 °C -14.8 °C 34293.4 hPa West 2.6 km/h 5.1 km/h 80 % 0 mm
23:44 -12.1 °C -14.3 °C 34327.3 hPa ENE 6 km/h 6 km/h 77 % 0 mm
23:49 -12.1 °C -14.3 °C 34327.3 hPa ENE 3.1 km/h   77 % 0 mm
23:50 -13.1 °C -14.9 °C 34293.4 hPa SW 2.6 km/h 5.1 km/h 80 % 0 mm
23:54 -12.1 °C -14.3 °C 34327.3 hPa Calm     77 % 0 mm
Meteo Sesrovires
Elogis d' Weather Underground - 1.5 mb

Guio original per  Jim McMurry - jmcmurry@mwt.net Adaptat per a la plantilla per  Wim van der Kuil - Leuven-Template.eu

Trobareu la nostra informacio del temps tambe a:

Weather Underground

AWEKAS